Time;durP1;ratioP1;P1;durP2;ratioP2;P2;SDS_P1;SDS_P2;PMS_P1;PMS_P2;Temp;Humidity;BMP_temperature;BMP_pressure;BME280_temperature;BME280_humidity;BME280_pressure;Samples;Min_cycle;Max_cycle;Signal;HPM_P1;HPM_P2
2022/03/15 00:01:12;;;;;;;2.47;2.15;;;2.50;99.90;;;;;;5236599;28;20044;-77
2022/03/15 00:03:46;;;;;;;0.45;0.45;;;2.50;99.90;;;;;;5238010;28;20437;-78
2022/03/15 00:06:23;;;;;;;0.73;0.73;;;2.50;99.90;;;;;;5219093;28;20053;-75
2022/03/15 00:08:55;;;;;;;0.95;0.95;;;2.50;99.90;;;;;;5235525;28;20070;-78
2022/03/15 00:11:30;;;;;;;0.40;0.40;;;2.50;99.90;;;;;;5251640;28;20255;-80
2022/03/15 00:14:04;;;;;;;1.08;1.08;;;2.50;99.90;;;;;;5245431;28;20409;-79
2022/03/15 00:16:36;;;;;;;0.63;0.63;;;2.40;99.90;;;;;;5253389;28;20024;-80
2022/03/15 00:19:10;;;;;;;1.95;1.85;;;2.40;99.90;;;;;;5211471;28;20459;-78
2022/03/15 00:21:47;;;;;;;0.93;0.93;;;2.40;99.90;;;;;;5231544;28;20046;-78
2022/03/15 00:24:19;;;;;;;0.70;0.70;;;2.40;99.90;;;;;;5253353;28;20032;-79
2022/03/15 00:26:54;;;;;;;0.60;0.60;;;2.30;99.90;;;;;;5209499;28;20330;-80
2022/03/15 00:29:29;;;;;;;1.80;1.23;;;2.20;99.90;;;;;;5240072;28;20352;-79
2022/03/15 00:32:08;;;;;;;0.60;0.60;;;2.20;99.90;;;;;;5230396;28;20038;-78
2022/03/15 00:34:42;;;;;;;2.25;0.82;;;2.20;99.90;;;;;;5257593;28;20393;-77
2022/03/15 00:37:15;;;;;;;0.50;0.50;;;2.20;99.90;;;;;;5268245;28;20391;-78
2022/03/15 00:39:47;;;;;;;0.90;0.90;;;2.20;99.90;;;;;;5218267;28;20039;-76
2022/03/15 00:42:21;;;;;;;0.50;0.50;;;2.20;99.90;;;;;;5267494;28;20032;-78
2022/03/15 00:45:00;;;;;;;0.85;0.85;;;2.20;99.90;;;;;;5248801;28;20020;-79
2022/03/15 00:47:32;;;;;;;1.35;1.35;;;2.20;99.90;;;;;;5249474;28;20032;-77
2022/03/15 00:50:09;;;;;;;0.73;0.73;;;2.10;99.90;;;;;;5256915;28;20020;-79
2022/03/15 00:52:44;;;;;;;0.55;0.55;;;2.00;99.90;;;;;;5253378;28;20032;-76
2022/03/15 00:55:16;;;;;;;0.70;0.70;;;2.00;99.90;;;;;;5251597;28;20306;-78
2022/03/15 00:57:47;;;;;;;0.55;0.55;;;1.90;99.90;;;;;;5256276;28;20685;-76
2022/03/15 01:00:23;;;;;;;0.75;0.75;;;1.90;99.90;;;;;;5264248;28;20028;-77
2022/03/15 01:02:57;;;;;;;0.45;0.45;;;1.90;99.90;;;;;;5226593;28;20042;-77
2022/03/15 01:05:32;;;;;;;0.70;0.70;;;1.90;99.90;;;;;;5226884;28;20041;-79
2022/03/15 01:08:08;;;;;;;0.35;0.35;;;2.00;99.90;;;;;;5235078;28;20534;-77
2022/03/15 01:10:42;;;;;;;1.20;1.20;;;2.00;99.90;;;;;;5215013;28;20034;-80
2022/03/15 01:13:19;;;;;;;1.13;1.10;;;2.00;99.90;;;;;;5234888;28;20042;-78
2022/03/15 01:15:55;;;;;;;0.80;0.80;;;1.90;99.90;;;;;;5247888;28;20032;-77
2022/03/15 01:18:31;;;;;;;0.60;0.60;;;2.00;99.90;;;;;;5267813;28;20399;-77
2022/03/15 01:21:05;;;;;;;0.43;0.43;;;2.00;99.90;;;;;;5243700;28;20054;-77
2022/03/15 01:23:39;;;;;;;0.63;0.60;;;2.00;99.90;;;;;;5247801;28;20024;-76
2022/03/15 01:26:14;;;;;;;0.45;0.45;;;2.10;99.90;;;;;;5263170;28;20027;-76
2022/03/15 01:28:45;;;;;;;;;;;2.10;99.90;;;;;;5218453;28;20051;-77
2022/03/15 01:31:21;;;;;;;0.80;0.80;;;2.20;99.90;;;;;;5248714;28;20261;-76
2022/03/15 01:33:56;;;;;;;0.50;0.50;;;2.10;99.90;;;;;;5263144;28;20033;-77
2022/03/15 01:36:32;;;;;;;1.05;1.05;;;2.10;99.90;;;;;;5229711;28;20040;-78
2022/03/15 01:39:05;;;;;;;0.52;0.52;;;2.00;99.90;;;;;;5259653;28;20029;-78
2022/03/15 01:41:41;;;;;;;0.30;0.30;;;2.00;99.90;;;;;;5250825;28;20370;-78
2022/03/15 01:44:26;;;;;;;0.45;0.45;;;1.90;99.90;;;;;;5259769;28;20039;-81
2022/03/15 01:47:02;;;;;;;0.93;0.93;;;1.90;99.90;;;;;;5237553;28;20027;-78
2022/03/15 01:49:34;;;;;;;0.60;0.60;;;2.00;99.90;;;;;;5263539;28;20057;-79
2022/03/15 01:52:15;;;;;;;1.58;1.58;;;1.90;99.90;;;;;;5254252;28;20034;-78
2022/03/15 01:54:47;;;;;;;0.60;0.60;;;1.80;99.90;;;;;;5247236;28;20030;-78
2022/03/15 01:57:28;;;;;;;0.60;0.60;;;1.90;99.90;;;;;;5263958;28;20214;-77
2022/03/15 02:00:06;;;;;;;0.95;0.95;;;1.90;99.90;;;;;;5260468;28;20024;-77
2022/03/15 02:02:40;;;;;;;0.50;0.50;;;1.80;99.90;;;;;;5276883;28;20370;-77
2022/03/15 02:05:14;;;;;;;0.70;0.70;;;1.80;99.90;;;;;;5216797;28;20040;-78
2022/03/15 02:07:45;;;;;;;0.60;0.60;;;1.80;99.90;;;;;;5241114;28;20016;-79
2022/03/15 02:10:20;;;;;;;0.52;0.52;;;1.90;99.90;;;;;;5228868;28;20032;-80
2022/03/15 02:12:52;;;;;;;0.50;0.50;;;1.90;99.90;;;;;;5242859;28;20050;-80
2022/03/15 02:15:28;;;;;;;0.90;0.90;;;1.90;99.90;;;;;;5232241;28;20054;-79
2022/03/15 02:18:09;;;;;;;0.90;0.90;;;1.80;99.90;;;;;;5236998;28;20039;-79
2022/03/15 02:20:43;;;;;;;0.43;0.43;;;1.80;99.90;;;;;;5241784;28;20463;-78
2022/03/15 02:23:19;;;;;;;1.05;1.05;;;1.70;99.90;;;;;;5250980;28;20348;-76
2022/03/15 02:25:53;;;;;;;2.00;1.90;;;1.60;99.90;;;;;;5248654;28;20024;-77
2022/03/15 02:28:28;;;;;;;1.33;1.23;;;1.60;99.90;;;;;;5275168;28;20480;-79
2022/03/15 02:31:00;;;;;;;0.88;0.88;;;1.50;99.90;;;;;;5236506;28;20043;-79
2022/03/15 02:33:31;;;;;;;0.90;0.90;;;1.50;99.90;;;;;;5269530;28;20021;-79
2022/03/15 02:36:06;;;;;;;0.80;0.80;;;1.40;99.90;;;;;;5244498;28;20036;-76
2022/03/15 02:38:39;;;;;;;0.82;0.82;;;1.40;99.90;;;;;;5271620;28;20040;-78
2022/03/15 02:41:17;;;;;;;1.97;1.87;;;1.30;99.90;;;;;;5259314;28;20238;-80
2022/03/15 02:43:50;;;;;;;0.60;0.60;;;1.30;99.90;;;;;;5231256;28;20058;-79
2022/03/15 02:46:27;;;;;;;0.40;0.40;;;1.30;99.90;;;;;;5232477;28;20298;-77
2022/03/15 02:49:04;;;;;;;0.50;0.50;;;1.20;99.90;;;;;;5241279;28;20513;-77
2022/03/15 02:51:37;;;;;;;0.88;0.85;;;1.30;99.90;;;;;;5249393;28;20032;-76
2022/03/15 02:54:11;;;;;;;0.50;0.50;;;1.30;99.90;;;;;;5248207;28;20029;-77
2022/03/15 02:56:47;;;;;;;0.77;0.77;;;1.30;99.90;;;;;;5268114;28;20229;-78
2022/03/15 02:59:21;;;;;;;0.93;0.93;;;1.30;99.90;;;;;;5236335;28;20456;-79
2022/03/15 03:01:53;;;;;;;0.50;0.50;;;1.40;99.90;;;;;;5262115;28;20378;-77
2022/03/15 03:04:24;;;;;;;0.50;0.50;;;1.40;99.90;;;;;;5241858;28;20058;-77
2022/03/15 03:07:01;;;;;;;0.50;0.50;;;1.30;99.90;;;;;;5262119;28;20054;-79
2022/03/15 03:09:38;;;;;;;1.02;1.02;;;1.30;99.90;;;;;;5258847;28;20058;-77
2022/03/15 03:12:16;;;;;;;0.43;0.43;;;1.20;99.90;;;;;;5239357;28;20024;-79
2022/03/15 03:14:49;;;;;;;0.50;0.50;;;1.20;99.90;;;;;;5247964;28;20036;-76
2022/03/15 03:17:24;;;;;;;1.52;1.42;;;1.10;99.90;;;;;;5218653;28;20032;-79
2022/03/15 03:19:58;;;;;;;1.08;1.08;;;1.10;99.90;;;;;;5270965;28;20020;-77
2022/03/15 03:22:29;;;;;;;1.15;1.10;;;1.00;99.90;;;;;;5260151;28;20530;-77
2022/03/15 03:25:05;;;;;;;0.70;0.70;;;0.90;99.90;;;;;;5262509;28;20032;-77
2022/03/15 03:27:37;;;;;;;1.05;1.05;;;0.80;99.90;;;;;;5253998;28;20398;-77
2022/03/15 03:30:13;;;;;;;0.50;0.50;;;0.90;99.90;;;;;;5247043;28;20038;-78
2022/03/15 03:32:44;;;;;;;0.70;0.70;;;0.80;99.90;;;;;;5238069;28;20066;-76
2022/03/15 03:35:20;;;;;;;0.47;0.47;;;0.80;99.90;;;;;;5271985;28;20042;-78
2022/03/15 03:37:52;;;;;;;0.60;0.60;;;0.90;99.90;;;;;;5232727;28;20330;-77
2022/03/15 03:40:26;;;;;;;0.50;0.50;;;0.90;99.90;;;;;;5259971;28;20036;-76
2022/03/15 03:43:00;;;;;;;0.50;0.50;;;1.00;99.90;;;;;;5234518;28;20032;-77
2022/03/15 03:45:32;;;;;;;;;;;1.00;99.90;;;;;;5220543;28;20032;-77
2022/03/15 03:48:07;;;;;;;0.95;0.95;;;1.00;99.90;;;;;;5266318;28;19920;-78
2022/03/15 03:50:40;;;;;;;0.82;0.82;;;1.10;99.90;;;;;;5278535;28;20304;-77
2022/03/15 03:53:11;;;;;;;0.68;0.68;;;1.10;99.90;;;;;;5290253;28;20353;-76
2022/03/15 03:55:49;;;;;;;0.50;0.50;;;1.20;99.90;;;;;;5235340;28;20028;-76
2022/03/15 03:58:21;;;;;;;0.40;0.40;;;1.20;99.90;;;;;;5207718;28;20046;-78
2022/03/15 04:00:53;;;;;;;0.70;0.70;;;1.20;99.90;;;;;;5205880;28;20040;-79
2022/03/15 04:03:25;;;;;;;0.50;0.50;;;1.20;99.90;;;;;;5262846;28;20028;-77
2022/03/15 04:06:02;;;;;;;0.68;0.68;;;1.20;99.90;;;;;;5222499;28;20046;-80
2022/03/15 04:08:36;;;;;;;0.90;0.90;;;1.20;99.90;;;;;;5215927;28;20028;-78
2022/03/15 04:11:09;;;;;;;0.50;0.50;;;1.20;99.90;;;;;;5261402;28;20035;-76
2022/03/15 04:13:48;;;;;;;0.60;0.60;;;1.20;99.90;;;;;;5237535;28;20038;-77
2022/03/15 04:16:22;;;;;;;0.70;0.70;;;1.10;99.90;;;;;;5258406;28;20307;-76
2022/03/15 04:18:57;;;;;;;1.00;1.00;;;1.00;99.90;;;;;;5267520;28;20590;-79
2022/03/15 04:21:28;;;;;;;0.70;0.70;;;1.00;99.90;;;;;;5254034;28;20020;-76
2022/03/15 04:24:02;;;;;;;0.52;0.52;;;1.00;99.90;;;;;;5231129;28;20032;-76
2022/03/15 04:26:34;;;;;;;;;;;1.00;99.90;;;;;;5219688;28;20036;-76
2022/03/15 04:29:06;;;;;;;0.65;0.65;;;1.00;99.90;;;;;;5238884;28;19915;-77
2022/03/15 04:31:40;;;;;;;1.48;1.45;;;1.00;99.90;;;;;;5252134;28;20034;-76
2022/03/15 04:34:11;;;;;;;;;;;1.00;99.90;;;;;;5264625;28;20020;-78
2022/03/15 04:36:46;;;;;;;0.90;0.90;;;1.00;99.90;;;;;;5246182;28;20459;-76
2022/03/15 04:39:20;;;;;;;0.77;0.77;;;1.00;99.90;;;;;;5252858;28;20024;-77
2022/03/15 04:41:57;;;;;;;0.50;0.50;;;1.00;99.90;;;;;;5234700;28;20019;-78
2022/03/15 04:44:31;;;;;;;0.60;0.60;;;1.00;99.90;;;;;;5252014;28;20042;-77
2022/03/15 04:47:04;;;;;;;0.60;0.60;;;1.00;99.90;;;;;;5260364;28;20023;-78
2022/03/15 04:49:42;;;;;;;0.75;0.75;;;1.00;99.90;;;;;;5232435;28;20031;-78
2022/03/15 04:52:17;;;;;;;0.50;0.50;;;1.10;99.90;;;;;;5264333;28;20075;-77
2022/03/15 04:54:49;;;;;;;1.52;1.42;;;1.10;99.90;;;;;;5248857;28;20025;-75
2022/03/15 04:57:23;;;;;;;0.45;0.45;;;1.10;99.90;;;;;;5231196;28;20459;-75
2022/03/15 05:00:00;;;;;;;0.70;0.70;;;1.10;99.90;;;;;;5247743;28;20028;-75
2022/03/15 05:02:36;;;;;;;1.27;1.27;;;1.10;99.90;;;;;;5233724;28;20027;-78
2022/03/15 05:05:08;;;;;;;3.30;2.92;;;1.20;99.90;;;;;;5213383;28;20043;-78
2022/03/15 05:07:40;;;;;;;0.70;0.70;;;1.20;99.90;;;;;;5231554;28;20031;-77
2022/03/15 05:13:02;;;;;;;1.52;1.42;;;1.30;99.90;;;;;;5234502;28;20038;-77
2022/03/15 05:15:40;;;;;;;0.98;0.98;;;1.40;99.90;;;;;;5226699;28;20036;-77
2022/03/15 05:18:17;;;;;;;0.90;0.90;;;1.50;99.90;;;;;;5240478;28;20030;-80
2022/03/15 05:20:52;;;;;;;0.70;0.70;;;1.50;99.90;;;;;;5247739;28;20043;-77
2022/03/15 05:23:26;;;;;;;0.70;0.70;;;1.50;99.90;;;;;;5230218;28;20032;-78
2022/03/15 05:25:58;;;;;;;0.60;0.60;;;1.50;99.90;;;;;;5259120;28;20034;-79
2022/03/15 05:28:33;;;;;;;0.75;0.75;;;1.50;99.90;;;;;;5235923;28;20036;-74
2022/03/15 05:31:10;;;;;;;2.15;0.93;;;1.50;99.90;;;;;;5253237;28;20046;-75
2022/03/15 05:33:44;;;;;;;0.43;0.43;;;1.60;99.90;;;;;;5255086;28;20048;-74
2022/03/15 05:36:16;;;;;;;0.98;0.98;;;1.60;99.90;;;;;;5254256;28;20246;-75
2022/03/15 05:38:50;;;;;;;1.30;0.77;;;1.60;99.90;;;;;;5262692;28;20586;-74
2022/03/15 05:41:22;;;;;;;0.60;0.60;;;1.70;99.90;;;;;;5254151;28;20032;-75
2022/03/15 05:43:58;;;;;;;1.35;1.27;;;1.80;99.90;;;;;;5261057;28;20029;-75
2022/03/15 05:46:34;;;;;;;0.85;0.85;;;1.80;99.90;;;;;;5238382;28;20522;-75
2022/03/15 05:49:05;;;;;;;;;;;1.90;99.90;;;;;;5256086;28;20032;-77
2022/03/15 05:51:40;;;;;;;;;;;1.90;99.90;;;;;;5245458;28;19908;-75
2022/03/15 05:54:12;;;;;;;;;;;2.00;99.90;;;;;;5238294;28;19916;-75
2022/03/15 05:56:46;;;;;;;;;;;2.00;99.90;;;;;;5245826;28;19919;-76
2022/03/15 05:59:17;;;;;;;;;;;2.10;99.90;;;;;;5250296;28;19923;-74
2022/03/15 06:01:52;;;;;;;;;;;2.20;99.90;;;;;;5261243;28;19916;-75
2022/03/15 06:04:26;;;;;;;;;;;2.40;99.90;;;;;;5239111;28;19916;-74
2022/03/15 06:06:58;;;;;;;;;;;2.50;99.90;;;;;;5228069;28;20224;-75
2022/03/15 06:09:30;;;;;;;;;;;2.70;99.90;;;;;;5241422;28;19919;-75
2022/03/15 06:12:02;;;;;;;;;;;2.80;99.90;;;;;;5246488;28;19923;-75
2022/03/15 06:14:35;;;;;;;;;;;2.80;99.90;;;;;;5223796;28;20259;-75
2022/03/15 06:17:09;;;;;;;;;;;3.00;99.90;;;;;;5254447;28;19908;-74
2022/03/15 06:19:42;;;;;;;;;;;3.10;99.90;;;;;;5262188;28;19920;-75
2022/03/15 06:22:13;;;;;;;;;;;3.20;99.90;;;;;;5244627;28;19916;-75
2022/03/15 06:24:45;;;;;;;;;;;3.20;99.90;;;;;;5244452;28;19911;-76
2022/03/15 06:27:17;;;;;;;;;;;3.30;99.90;;;;;;5250800;28;19920;-75
2022/03/15 06:29:53;;;;;;;;;;;3.50;99.90;;;;;;5241478;28;19922;-75
2022/03/15 06:32:30;;;;;;;;;;;3.70;99.90;;;;;;5241605;28;19916;-75
2022/03/15 06:35:07;;;;;;;;;;;3.90;99.90;;;;;;5237428;28;19914;-75
2022/03/15 06:37:45;;;;;;;;;;;4.10;99.90;;;;;;5222965;28;19904;-75
2022/03/15 06:40:26;;;;;;;;;;;4.30;99.90;;;;;;5237182;28;19914;-76
2022/03/15 06:42:58;;;;;;;;;;;4.40;99.90;;;;;;5234872;28;19919;-76
2022/03/15 06:45:32;;;;;;;;;;;4.60;99.90;;;;;;5237217;28;19916;-75
2022/03/15 06:48:04;;;;;;;;;;;4.80;99.90;;;;;;5230921;28;19912;-75
2022/03/15 06:50:38;;;;;;;;;;;4.90;99.90;;;;;;5255262;28;19918;-75
2022/03/15 06:53:09;;;;;;;;;;;5.00;99.90;;;;;;5242175;28;19943;-75
2022/03/15 06:55:41;;;;;;;;;;;5.10;99.90;;;;;;5244558;28;19914;-75
2022/03/15 06:58:13;;;;;;;;;;;5.20;99.90;;;;;;5236871;28;19919;-75
2022/03/15 07:00:44;;;;;;;;;;;5.40;99.90;;;;;;5249805;28;19924;-76
2022/03/15 07:03:18;;;;;;;;;;;5.50;99.90;;;;;;5252284;28;19917;-75
2022/03/15 07:05:54;;;;;;;;;;;5.70;99.90;;;;;;5231802;28;19927;-76
2022/03/15 07:08:29;;;;;;;;;;;5.80;99.90;;;;;;5255153;28;19904;-75
2022/03/15 07:11:03;;;;;;;;;;;5.90;99.90;;;;;;5234669;28;19904;-75
2022/03/15 07:13:36;;;;;;;;;;;5.80;99.90;;;;;;5211004;28;19919;-76
2022/03/15 07:16:13;;;;;;;;;;;6.00;99.90;;;;;;5232928;28;20255;-75
2022/03/15 07:18:44;;;;;;;;;;;5.90;99.90;;;;;;5234524;28;19912;-76
2022/03/15 07:21:21;;;;;;;;;;;5.70;99.90;;;;;;5243446;28;19904;-76
2022/03/15 07:23:52;;;;;;;;;;;5.60;99.90;;;;;;5246152;28;20262;-76
2022/03/15 07:26:26;;;;;;;;;;;5.80;99.90;;;;;;5244168;28;19916;-75
2022/03/15 07:29:01;;;;;;;;;;;5.90;99.90;;;;;;5245147;28;19908;-76
2022/03/15 07:31:37;;;;;;;;;;;6.00;99.90;;;;;;5248962;28;19908;-75
2022/03/15 07:34:11;;;;;;;;;;;6.30;99.90;;;;;;5256260;28;20190;-77
2022/03/15 07:36:43;;;;;;;;;;;6.10;99.90;;;;;;5246315;28;20419;-76
2022/03/15 07:39:14;;;;;;;;;;;6.30;99.90;;;;;;5243241;28;20423;-78
2022/03/15 07:41:46;;;;;;;;;;;6.50;99.90;;;;;;5250704;28;19909;-76
2022/03/15 07:44:23;;;;;;;;;;;6.20;99.90;;;;;;5245997;28;19916;-76
2022/03/15 07:47:01;;;;;;;;;;;6.50;99.90;;;;;;5240564;28;19907;-76
2022/03/15 07:49:35;;;;;;;;;;;6.80;99.90;;;;;;5242955;28;20316;-76
2022/03/15 07:52:07;;;;;;;;;;;6.90;99.90;;;;;;5234075;28;19930;-75
2022/03/15 07:54:41;;;;;;;;;;;7.20;99.90;;;;;;5231265;28;19931;-76
2022/03/15 07:57:14;;;;;;;;;;;7.00;99.90;;;;;;5243860;28;19923;-76
2022/03/15 07:59:46;;;;;;;;;;;6.90;99.90;;;;;;5245745;28;19926;-76
2022/03/15 08:02:20;;;;;;;;;;;7.30;99.90;;;;;;5231613;28;19918;-78
2022/03/15 08:04:53;;;;;;;;;;;7.60;99.90;;;;;;5230971;28;19927;-77
2022/03/15 08:07:26;;;;;;;;;;;7.90;99.90;;;;;;5243044;28;19942;-78
2022/03/15 08:10:03;;;;;;;;;;;8.20;99.90;;;;;;5260107;28;20292;-79
2022/03/15 08:12:38;;;;;;;;;;;8.30;99.90;;;;;;5247096;28;19908;-78
2022/03/15 08:15:11;;;;;;;;;;;8.60;99.90;;;;;;5253036;28;20391;-76
2022/03/15 08:17:45;;;;;;;;;;;8.50;99.90;;;;;;5257000;28;19927;-77
2022/03/15 08:20:20;;;;;;;;;;;8.40;99.90;;;;;;5242809;28;19924;-75
2022/03/15 08:22:52;;;;;;;;;;;8.50;99.90;;;;;;5235076;28;19916;-76
2022/03/15 08:25:24;;;;;;;;;;;8.50;99.90;;;;;;5254704;28;20217;-76
2022/03/15 08:28:00;;;;;;;;;;;8.50;99.90;;;;;;5230681;28;19917;-75
2022/03/15 08:30:36;;;;;;;;;;;8.90;99.90;;;;;;5242590;28;19904;-76
2022/03/15 08:33:08;;;;;;;;;;;9.00;99.90;;;;;;5259847;28;19922;-76
2022/03/15 08:35:51;;;;;;;;;;;9.20;99.90;;;;;;5241659;28;19916;-77
2022/03/15 08:38:34;;;;;;;;;;;9.40;99.90;;;;;;5218912;28;19920;-77
2022/03/15 08:41:06;;;;;;;;;;;9.50;99.90;;;;;;5239227;28;20432;-78
2022/03/15 08:43:38;;;;;;;;;;;9.30;99.90;;;;;;5232420;28;19934;-77
2022/03/15 08:46:09;;;;;;;;;;;9.40;99.90;;;;;;5250373;28;19914;-77
2022/03/15 08:48:43;;;;;;;;;;;9.90;99.90;;;;;;5246037;28;19908;-77
2022/03/15 08:51:14;;;;;;;;;;;10.00;99.90;;;;;;5238349;28;19908;-77
2022/03/15 08:53:46;;;;;;;;;;;10.50;99.90;;;;;;5228020;28;20205;-76
2022/03/15 08:56:17;;;;;;;;;;;10.30;99.90;;;;;;5246588;28;20427;-77
2022/03/15 08:58:51;;;;;;;;;;;10.20;99.90;;;;;;5247423;28;19931;-78
2022/03/15 09:01:27;;;;;;;;;;;10.60;99.90;;;;;;5245100;28;20272;-76
2022/03/15 09:03:58;;;;;;;;;;;11.00;99.90;;;;;;5246033;28;20316;-78
2022/03/15 09:06:33;;;;;;;;;;;11.10;99.90;;;;;;5237494;28;19909;-76
2022/03/15 09:09:08;;;;;;;;;;;11.00;99.90;;;;;;5243241;28;19920;-77
2022/03/15 09:11:40;;;;;;;;;;;11.00;99.90;;;;;;5244471;28;19904;-78
2022/03/15 09:14:12;;;;;;;;;;;11.20;99.90;;;;;;5241437;28;19955;-77
2022/03/15 09:16:46;;;;;;;;;;;11.30;99.90;;;;;;5242443;28;19900;-75
2022/03/15 09:19:17;;;;;;;;;;;11.60;99.90;;;;;;5250180;28;19912;-77
2022/03/15 09:21:50;;;;;;;;;;;12.00;99.90;;;;;;5257627;28;19918;-76
2022/03/15 09:24:23;;;;;;;;;;;12.70;99.90;;;;;;5231724;28;19915;-77
2022/03/15 09:26:58;;;;;;;;;;;12.50;99.90;;;;;;5260585;28;19916;-75
2022/03/15 09:29:39;;;;;;;;;;;12.50;99.90;;;;;;5244934;28;19918;-76
2022/03/15 09:32:15;;;;;;;;;;;12.10;99.90;;;;;;5229160;28;19912;-76
2022/03/15 09:34:47;;;;;;;;;;;12.50;99.90;;;;;;5242120;28;20351;-75
2022/03/15 09:37:18;;;;;;;;;;;12.50;99.90;;;;;;5255673;28;19916;-76
2022/03/15 09:39:57;;;;;;;;;;;12.60;99.90;;;;;;5247539;28;19920;-77
2022/03/15 09:42:33;;;;;;;;;;;13.00;99.90;;;;;;5239995;28;19915;-76
2022/03/15 09:45:05;;;;;;;;;;;13.30;99.90;;;;;;5249829;28;19920;-76
2022/03/15 09:47:38;;;;;;;;;;;13.20;99.90;;;;;;5235950;28;19912;-76
2022/03/15 09:50:09;;;;;;;;;;;13.00;99.90;;;;;;5244251;28;19914;-77
2022/03/15 09:52:41;;;;;;;;;;;12.70;99.90;;;;;;5221839;28;19920;-76
2022/03/15 09:55:20;;;;;;;;;;;13.50;99.90;;;;;;5234022;28;19950;-76
2022/03/15 09:57:54;;;;;;;;;;;12.80;99.90;;;;;;5246731;28;19916;-76
2022/03/15 10:00:26;;;;;;;;;;;13.50;99.90;;;;;;5255420;28;19918;-79
2022/03/15 10:02:57;;;;;;;;;;;13.80;99.90;;;;;;5232733;28;19992;-76
2022/03/15 10:05:31;;;;;;;;;;;14.40;99.90;;;;;;5244555;28;19913;-78
2022/03/15 10:08:03;;;;;;;;;;;14.80;99.90;;;;;;5256171;28;19914;-78
2022/03/15 10:10:36;;;;;;;;;;;15.00;99.90;;;;;;5256886;28;19912;-76
2022/03/15 10:13:10;;;;;;;;;;;14.50;99.90;;;;;;5259961;28;19951;-76
2022/03/15 10:16:00;;;;;;;;;;;14.60;99.90;;;;;;5225366;28;20260;-77
2022/03/15 10:18:34;;;;;;;;;;;15.20;99.90;;;;;;5211116;28;19920;-76
2022/03/15 10:21:14;;;;;;;;;;;15.40;99.90;;;;;;5221805;28;20141;-76
2022/03/15 10:23:52;;;;;;;;;;;15.90;99.90;;;;;;5245288;28;19901;-76
2022/03/15 10:26:32;;;;;;;;;;;16.70;99.90;;;;;;5239448;28;19908;-75
2022/03/15 10:29:13;;;;;;;;;;;16.50;99.90;;;;;;5256948;28;19901;-77
2022/03/15 10:31:46;;;;;;;;;;;17.20;99.90;;;;;;5244005;28;19909;-76
2022/03/15 10:34:19;;;;;;;;;;;18.00;99.90;;;;;;5246974;28;20254;-79
2022/03/15 10:36:56;;;;;;;;;;;18.20;99.90;;;;;;5234770;28;19917;-77
2022/03/15 10:39:29;;;;;;;;;;;18.20;99.90;;;;;;5243038;28;19912;-77
2022/03/15 10:42:07;;;;;;;;;;;17.20;99.90;;;;;;5209378;28;19921;-78
2022/03/15 10:44:39;;;;;;;;;;;17.20;99.90;;;;;;5230353;28;19916;-79
2022/03/15 10:47:17;;;;;;;;;;;17.10;99.90;;;;;;5217421;28;19916;-77
2022/03/15 10:50:03;;;;;;;;;;;17.10;99.90;;;;;;5244837;28;19908;-76
2022/03/15 10:52:40;;;;;;;;;;;17.10;99.90;;;;;;5243055;28;19916;-77
2022/03/15 10:55:15;;;;;;;;;;;18.00;99.90;;;;;;5260277;28;19914;-77
2022/03/15 10:57:51;;;;;;;;;;;17.70;99.90;;;;;;5222586;28;20432;-76
2022/03/15 11:00:35;;;;;;;;;;;17.40;99.90;;;;;;5243823;28;19916;-76
2022/03/15 11:03:19;;;;;;;;;;;17.50;99.90;;;;;;5218185;28;19916;-75
2022/03/15 11:06:02;;;;;;;;;;;16.70;99.90;;;;;;5231109;28;19909;-75
2022/03/15 11:08:36;;;;;;;;;;;17.10;99.90;;;;;;5229000;28;19918;-75
2022/03/15 11:11:10;;;;;;;;;;;17.20;99.90;;;;;;5226460;28;19915;-74
2022/03/15 11:13:47;;;;;;;;;;;17.20;99.90;;;;;;5215584;28;19930;-76
2022/03/15 11:16:18;;;;;;;;;;;17.50;99.90;;;;;;5242108;28;19923;-78
2022/03/15 11:18:54;;;;;;;;;;;17.20;99.90;;;;;;5243437;28;19915;-75
2022/03/15 11:21:31;;;;;;;;;;;17.00;99.90;;;;;;5243484;28;19920;-76
2022/03/15 11:24:03;;;;;;;;;;;16.80;99.90;;;;;;5217867;28;20344;-77
2022/03/15 11:26:44;;;;;;;;;;;16.40;99.90;;;;;;5232421;28;19900;-76
2022/03/15 11:29:20;;;;;;;;;;;16.20;99.90;;;;;;5233480;28;19916;-76
2022/03/15 11:31:52;;;;;;;;;;;16.00;99.90;;;;;;5239119;28;19922;-78
2022/03/15 11:34:26;;;;;;;;;;;16.10;99.90;;;;;;5230785;28;20297;-76
2022/03/15 11:37:01;;;;;;;;;;;16.30;99.90;;;;;;5237234;28;20451;-78
2022/03/15 11:39:32;;;;;;;;;;;16.40;99.90;;;;;;5261708;28;20442;-76
2022/03/15 11:42:09;;;;;;;;;;;16.20;99.90;;;;;;5252828;28;19934;-78
2022/03/15 11:45:09;;;;;;;;;;;16.10;99.90;;;;;;5229178;28;19916;-77
2022/03/15 11:48:18;;;;;;;;;;;16.00;99.90;;;;;;5235367;28;20112;-77
2022/03/15 11:51:15;;;;;;;;;;;15.80;99.90;;;;;;5255725;28;19907;-78
2022/03/15 11:53:56;;;;;;;;;;;16.00;99.90;;;;;;5263012;28;19908;-75
2022/03/15 11:56:58;;;;;;;;;;;16.40;99.90;;;;;;5247407;28;19917;-75
2022/03/15 11:59:49;;;;;;;;;;;16.50;99.90;;;;;;5251436;28;19919;-76
2022/03/15 12:02:38;;;;;;;;;;;16.60;99.90;;;;;;5239789;28;19918;-77
2022/03/15 12:05:20;;;;;;;;;;;16.50;99.90;;;;;;5233174;28;19928;-77
2022/03/15 12:08:13;;;;;;;;;;;17.00;99.90;;;;;;5247554;28;20242;-76
2022/03/15 12:10:56;;;;;;;;;;;18.00;99.90;;;;;;5246859;28;19916;-76
2022/03/15 12:13:40;;;;;;;;;;;19.00;99.90;;;;;;5265752;28;20456;-76
2022/03/15 12:16:27;;;;;;;;;;;18.60;99.90;;;;;;5203348;28;20056;-76
2022/03/15 12:19:21;;;;;;;;;;;19.00;99.90;;;;;;5235267;28;19943;-77
2022/03/15 12:21:54;;;;;;;;;;;19.00;99.90;;;;;;5236387;28;19950;-75
2022/03/15 12:24:35;;;;;;;;;;;19.30;99.90;;;;;;5240807;28;20437;-77
2022/03/15 12:27:10;;;;;;;;;;;19.00;99.90;;;;;;5249972;28;19916;-76
2022/03/15 12:30:00;;;;;;;;;;;18.00;99.90;;;;;;5243818;28;19908;-75
2022/03/15 12:32:35;;;;;;;;;;;17.70;99.90;;;;;;5234883;28;19916;-77
2022/03/15 12:35:11;;;;;;;;;;;18.00;99.90;;;;;;5237384;28;19916;-76
2022/03/15 12:37:45;;;;;;;;;;;17.70;99.90;;;;;;5249990;28;20280;-78
2022/03/15 12:40:21;;;;;;;;;;;17.40;99.90;;;;;;5253556;28;20355;-75
2022/03/15 12:42:58;;;;;;;;;;;16.90;99.90;;;;;;5241508;28;19900;-77
2022/03/15 12:45:29;;;;;;;;;;;17.10;99.90;;;;;;5219793;28;19913;-78
2022/03/15 12:48:06;;;;;;;;;;;17.10;99.90;;;;;;5211896;28;19914;-76
2022/03/15 12:50:41;;;;;;;;;;;16.80;99.90;;;;;;5223760;28;19912;-76
2022/03/15 12:53:14;;;;;;;;;;;16.90;99.90;;;;;;5261245;28;19918;-77
2022/03/15 12:55:46;;;;;;;;;;;16.80;99.90;;;;;;5237341;28;19923;-76
2022/03/15 12:58:18;;;;;;;;;;;16.40;99.90;;;;;;5257193;28;19916;-76
2022/03/15 13:00:53;;;;;;;;;;;16.30;99.90;;;;;;5254817;28;19918;-78
2022/03/15 13:03:25;;;;;;;;;;;15.80;99.90;;;;;;5241769;28;19916;-76
2022/03/15 13:05:57;;;;;;;;;;;15.60;99.90;;;;;;5239659;28;20435;-76
2022/03/15 13:08:39;;;;;;;;;;;15.70;99.90;;;;;;5257018;28;20186;-77
2022/03/15 13:11:18;;;;;;;;;;;15.70;99.90;;;;;;5254479;28;19919;-75
2022/03/15 13:13:49;;;;;;;;;;;15.80;99.90;;;;;;5237896;28;19916;-78
2022/03/15 13:16:25;;;;;;;;;;;15.80;99.90;;;;;;5247089;28;19916;-76
2022/03/15 13:18:56;;;;;;;;;;;15.50;99.90;;;;;;5240300;28;19912;-76
2022/03/15 13:21:29;;;;;;;;;;;15.40;99.90;;;;;;5254979;28;19916;-78
2022/03/15 13:24:12;;;;;;;;;;;15.20;99.90;;;;;;5220740;28;19908;-77
2022/03/15 13:26:50;;;;;;;;;;;15.40;99.90;;;;;;5231807;28;19910;-79
2022/03/15 13:29:26;;;;;;;;;;;15.10;99.90;;;;;;5241039;28;19916;-80
2022/03/15 13:32:01;;;;;;;;;;;14.90;99.90;;;;;;5211250;28;19908;-77
2022/03/15 13:34:35;;;;;;;;;;;15.10;99.90;;;;;;5235352;28;19946;-77
2022/03/15 13:37:15;;;;;;;;;;;15.40;99.90;;;;;;5223174;28;19915;-78
2022/03/15 13:39:46;;;;;;;;;;;15.30;99.90;;;;;;5231923;28;20293;-75
2022/03/15 13:42:20;;;;;;;;;;;15.50;99.90;;;;;;5211850;28;19916;-75
2022/03/15 13:44:54;;;;;;;;;;;15.80;99.90;;;;;;5227158;28;19926;-76
2022/03/15 13:47:27;;;;;;;;;;;15.80;99.90;;;;;;5257506;28;20334;-76
2022/03/15 13:50:06;;;;;;;;;;;15.60;99.90;;;;;;5253341;28;19922;-76
2022/03/15 13:52:41;;;;;;;;;;;15.30;99.90;;;;;;5245301;28;19914;-76
2022/03/15 13:55:15;;;;;;;;;;;15.20;99.90;;;;;;5242452;28;20324;-76
2022/03/15 13:57:52;;;;;;;;;;;14.90;99.90;;;;;;5243024;28;19908;-75
2022/03/15 14:00:28;;;;;;;;;;;14.80;99.90;;;;;;5232794;28;19924;-76
2022/03/15 14:03:09;;;;;;;;;;;14.70;99.90;;;;;;5243218;28;19918;-75
2022/03/15 14:05:41;;;;;;;;;;;14.80;99.90;;;;;;5200569;28;19912;-75
2022/03/15 14:08:13;;;;;;;;;;;14.70;99.90;;;;;;5260271;28;19934;-76
2022/03/15 14:10:47;;;;;;;;;;;14.60;99.90;;;;;;5252078;28;19937;-76
2022/03/15 14:13:28;;;;;;;;;;;14.60;99.90;;;;;;5245267;28;19919;-75
2022/03/15 14:16:14;;;;;;;;;;;14.60;99.90;;;;;;5225046;28;19916;-73
2022/03/15 14:18:55;;;;;;;;;;;14.60;99.90;;;;;;5250857;28;19904;-75
2022/03/15 14:21:30;;;;;;;;;;;14.50;99.90;;;;;;5243570;28;19918;-76
2022/03/15 14:24:06;;;;;;;;;;;14.60;99.90;;;;;;5256477;28;19916;-75
2022/03/15 14:26:41;;;;;;;;;;;14.60;99.90;;;;;;5243650;28;19915;-75
2022/03/15 14:29:19;;;;;;;;;;;14.80;99.90;;;;;;5260139;28;19922;-76
2022/03/15 14:32:05;;;;;;;;;;;14.70;99.90;;;;;;5230329;28;19906;-75
2022/03/15 14:34:41;;;;;;;;;;;14.70;99.90;;;;;;5252410;28;19916;-74